createdAt,value
2022-10-18T00:04:43.753Z,5.15
2022-10-18T00:09:50.309Z,4.28
2022-10-18T00:15:01.830Z,5.40
2022-10-18T00:20:15.983Z,5.85
2022-10-18T00:25:20.126Z,5.70
2022-10-18T00:30:25.664Z,4.78
2022-10-18T00:35:33.332Z,5.47
2022-10-18T00:40:46.696Z,5.05
2022-10-18T00:45:54.749Z,5.95
2022-10-18T00:50:58.513Z,4.30
2022-10-18T00:56:12.386Z,5.22
2022-10-18T01:05:21.168Z,5.05
2022-10-18T01:10:57.747Z,4.75
2022-10-18T01:16:21.072Z,6.30
2022-10-18T01:22:07.886Z,5.22
2022-10-18T01:27:34.199Z,6.00
2022-10-18T01:32:54.931Z,5.70
2022-10-18T01:38:12.533Z,4.95
2022-10-18T01:43:26.238Z,6.63
2022-10-18T01:48:36.812Z,6.22
2022-10-18T01:53:40.671Z,4.93
2022-10-18T01:59:09.138Z,5.07
2022-10-18T02:04:32.566Z,4.65
2022-10-18T02:09:58.989Z,5.20
2022-10-18T02:15:07.635Z,5.20
2022-10-18T02:20:16.727Z,6.32
2022-10-18T02:25:28.113Z,6.43
2022-10-18T02:31:03.141Z,6.15
2022-10-18T02:36:46.193Z,6.68
2022-10-18T02:41:58.647Z,7.03
2022-10-18T02:47:04.151Z,7.18
2022-10-18T02:52:16.052Z,6.93
2022-10-18T02:57:19.357Z,7.78
2022-10-18T03:07:27.717Z,6.30
2022-10-18T03:12:40.662Z,6.90
2022-10-18T03:18:10.165Z,7.30
2022-10-18T03:23:17.511Z,6.47
2022-10-18T03:28:23.674Z,6.28
2022-10-18T03:33:33.325Z,6.45
2022-10-18T03:38:38.837Z,6.47
2022-10-18T03:43:57.070Z,6.30
2022-10-18T03:49:06.244Z,6.85
2022-10-18T03:54:15.265Z,6.35
2022-10-18T03:59:20.991Z,6.50
2022-10-18T04:04:24.027Z,4.88
2022-10-18T04:09:34.322Z,5.65
2022-10-18T04:14:52.501Z,5.00
2022-10-18T04:19:56.946Z,4.90
2022-10-18T04:25:04.754Z,5.63
2022-10-18T04:30:16.500Z,6.28
2022-10-18T04:35:27.362Z,5.97
2022-10-18T04:40:39.986Z,5.78
2022-10-18T04:45:52.756Z,5.65
2022-10-18T04:51:05.622Z,7.03
2022-10-18T04:56:12.395Z,5.32
2022-10-18T05:01:18.529Z,6.78
2022-10-18T05:06:28.227Z,6.88
2022-10-18T05:11:35.840Z,7.03
2022-10-18T05:16:47.156Z,6.03
2022-10-18T05:21:56.053Z,4.60
2022-10-18T05:27:01.116Z,6.47
2022-10-18T05:32:04.777Z,4.97
2022-10-18T05:37:15.870Z,4.80
2022-10-18T05:42:31.379Z,5.43
2022-10-18T05:47:38.372Z,5.68
2022-10-18T05:52:46.632Z,5.13
2022-10-18T05:57:54.603Z,5.85
2022-10-18T06:03:05.377Z,4.90
2022-10-18T06:08:18.039Z,6.35
2022-10-18T06:13:30.071Z,6.63
2022-10-18T06:18:36.883Z,6.45
2022-10-18T06:23:56.046Z,6.47
2022-10-18T06:29:04.237Z,6.30
2022-10-18T06:34:22.719Z,6.45
2022-10-18T06:39:30.431Z,7.97
2022-10-18T06:44:36.247Z,7.40
2022-10-18T06:49:43.256Z,9.82
2022-10-18T06:54:48.762Z,8.35
2022-10-18T06:59:58.233Z,7.97
2022-10-18T07:05:03.991Z,6.43
2022-10-18T07:10:13.122Z,6.63
2022-10-18T07:15:23.286Z,7.43
2022-10-18T07:20:41.030Z,6.95
2022-10-18T07:25:56.017Z,10.52
2022-10-18T07:31:12.674Z,9.33
2022-10-18T07:36:18.318Z,8.98
2022-10-18T07:41:30.259Z,8.30
2022-10-18T07:46:36.672Z,8.75
2022-10-18T07:51:48.731Z,7.65
2022-10-18T07:56:57.652Z,8.63
2022-10-18T08:02:06.430Z,8.35
2022-10-18T08:07:15.229Z,7.78
2022-10-18T08:12:25.129Z,8.93
2022-10-18T08:17:34.819Z,8.57
2022-10-18T08:28:16.448Z,9.10
2022-10-18T08:33:25.232Z,10.93
2022-10-18T08:38:36.264Z,14.73
2022-10-18T08:44:20.830Z,15.05
2022-10-18T08:49:51.478Z,12.60
2022-10-18T08:55:12.580Z,13.45
2022-10-18T09:00:32.895Z,11.70
2022-10-18T09:06:05.721Z,12.57
2022-10-18T09:11:39.501Z,12.75
2022-10-18T09:17:17.209Z,12.90
2022-10-18T09:22:52.836Z,13.55
2022-10-18T09:28:37.589Z,11.98
2022-10-18T09:34:16.283Z,13.73
2022-10-18T09:45:03.574Z,6.00
2022-10-18T09:50:29.585Z,5.30
2022-10-18T09:55:56.527Z,6.32
2022-10-18T10:01:01.024Z,4.85
2022-10-18T10:06:41.486Z,6.05
2022-10-18T10:12:00.132Z,5.30
2022-10-18T10:17:30.406Z,4.95
2022-10-18T10:22:40.522Z,5.85
2022-10-18T10:27:48.116Z,5.60
2022-10-18T10:33:02.186Z,5.35
2022-10-18T10:38:11.259Z,4.63
2022-10-18T10:49:38.529Z,4.70
2022-10-18T10:54:51.192Z,4.50
2022-10-18T11:05:34.594Z,5.63
2022-10-18T11:11:30.980Z,4.95
2022-10-18T11:17:18.785Z,5.35
2022-10-18T11:22:42.668Z,4.20
2022-10-18T11:28:13.714Z,5.97
2022-10-18T11:34:10.320Z,5.93
2022-10-18T11:39:48.946Z,5.22
2022-10-18T11:45:22.085Z,4.78
2022-10-18T11:57:12.821Z,4.97
2022-10-18T12:02:59.183Z,5.78
2022-10-18T12:08:22.213Z,5.75
2022-10-18T12:19:07.800Z,5.45
2022-10-18T12:24:34.240Z,5.50
2022-10-18T12:30:03.577Z,5.80
2022-10-18T12:35:25.701Z,5.20
2022-10-18T12:40:57.290Z,5.22
2022-10-18T12:52:12.144Z,5.97
2022-10-18T13:03:27.578Z,6.05
2022-10-18T13:08:52.822Z,5.28
2022-10-18T13:20:27.912Z,5.43
2022-10-18T13:25:46.185Z,5.47
2022-10-18T13:31:22.538Z,4.85
2022-10-18T13:36:50.308Z,6.60
2022-10-18T13:41:57.711Z,6.45
2022-10-18T13:47:16.162Z,4.63
2022-10-18T13:53:23.831Z,6.68
2022-10-18T13:59:38.149Z,5.90
2022-10-18T14:05:25.381Z,6.47
2022-10-18T14:11:26.033Z,5.50
2022-10-18T14:16:43.407Z,7.18
2022-10-18T14:22:17.879Z,6.17
2022-10-18T14:27:29.709Z,5.03
2022-10-18T14:32:36.495Z,5.35
2022-10-18T14:37:53.619Z,6.03
2022-10-18T14:48:27.909Z,6.15
2022-10-18T14:53:44.628Z,4.80
2022-10-18T14:59:04.562Z,5.40
2022-10-18T15:04:14.629Z,5.13
2022-10-18T15:09:25.893Z,5.90
2022-10-18T15:14:46.930Z,5.70
2022-10-18T15:20:27.652Z,5.88
2022-10-18T15:25:43.887Z,4.78
2022-10-18T15:30:48.048Z,5.80
2022-10-18T15:35:55.248Z,5.75
2022-10-18T15:41:04.809Z,4.68
2022-10-18T15:46:33.838Z,5.80
2022-10-18T15:52:18.687Z,4.68
2022-10-18T15:57:37.216Z,4.40
2022-10-18T16:03:07.891Z,4.30
2022-10-18T16:08:22.573Z,4.53
2022-10-18T16:13:29.894Z,5.55
2022-10-18T16:18:39.982Z,4.85
2022-10-18T16:23:42.920Z,6.15
2022-10-18T16:28:49.554Z,4.82
2022-10-18T16:33:59.975Z,5.60
2022-10-18T16:39:14.729Z,5.32
2022-10-18T16:44:29.791Z,5.25
2022-10-18T16:49:35.479Z,5.22
2022-10-18T16:54:42.208Z,5.03
2022-10-18T16:59:48.924Z,5.70
2022-10-18T17:05:01.309Z,6.50
2022-10-18T17:10:11.361Z,5.70
2022-10-18T17:15:32.813Z,3.93
2022-10-18T17:20:41.399Z,5.97
2022-10-18T17:26:04.831Z,6.80
2022-10-18T17:31:19.614Z,6.20
2022-10-18T17:36:33.740Z,6.78
2022-10-18T17:41:49.156Z,6.60
2022-10-18T17:46:58.912Z,5.32
2022-10-18T17:52:15.583Z,6.43
2022-10-18T17:57:21.282Z,5.75
2022-10-18T18:02:29.641Z,5.80
2022-10-18T18:07:35.944Z,6.15
2022-10-18T18:12:50.558Z,5.30
2022-10-18T18:18:02.882Z,6.65
2022-10-18T18:23:16.548Z,6.45
2022-10-18T18:28:33.613Z,6.60
2022-10-18T18:34:05.762Z,5.15
2022-10-18T18:44:28.702Z,4.32
2022-10-18T18:49:33.916Z,4.18
2022-10-18T18:54:36.140Z,4.43
2022-10-18T18:59:53.402Z,5.40
2022-10-18T19:05:10.611Z,6.20
2022-10-18T19:10:23.383Z,6.05
2022-10-18T19:15:31.572Z,5.55
2022-10-18T19:20:45.786Z,6.18
2022-10-18T19:25:57.848Z,7.25
2022-10-18T19:31:03.982Z,6.50
2022-10-18T19:36:14.192Z,6.03
2022-10-18T19:41:38.325Z,7.13
2022-10-18T19:46:44.681Z,5.45
2022-10-18T19:51:54.904Z,5.57
2022-10-18T19:57:05.617Z,6.72
2022-10-18T20:02:22.742Z,5.97
2022-10-18T20:07:29.515Z,5.88
2022-10-18T20:12:31.616Z,6.13
2022-10-18T20:17:37.187Z,6.00
2022-10-18T20:23:06.807Z,5.72
2022-10-18T20:28:20.396Z,4.63
2022-10-18T20:33:44.029Z,5.10
2022-10-18T20:38:57.754Z,4.88
2022-10-18T20:44:16.050Z,6.35
2022-10-18T20:49:29.542Z,6.70
2022-10-18T20:54:40.829Z,7.10
2022-10-18T21:00:10.513Z,7.80
2022-10-18T21:05:23.609Z,8.50
2022-10-18T21:10:30.307Z,8.50
2022-10-18T21:15:32.920Z,9.63
2022-10-18T21:20:35.689Z,8.38
2022-10-18T21:25:50.971Z,7.35
2022-10-18T21:30:54.400Z,8.68
2022-10-18T21:36:01.185Z,8.25
2022-10-18T21:41:14.236Z,6.97
2022-10-18T21:46:35.672Z,9.73
2022-10-18T21:51:48.084Z,10.77
2022-10-18T21:56:53.976Z,9.45
2022-10-18T22:02:01.671Z,8.65
2022-10-18T22:07:07.091Z,8.75
2022-10-18T22:12:20.290Z,7.55
2022-10-18T22:17:29.125Z,7.95
2022-10-18T22:22:39.773Z,7.63
2022-10-18T22:27:50.648Z,8.18
2022-10-18T22:32:53.491Z,12.53
2022-10-18T22:37:57.043Z,7.82
2022-10-18T22:43:12.880Z,8.45
2022-10-18T22:48:21.042Z,6.82
2022-10-18T22:53:30.169Z,8.60
2022-10-18T22:58:33.376Z,9.30
2022-10-18T23:09:06.659Z,8.77
2022-10-18T23:14:13.397Z,9.05
2022-10-18T23:24:35.614Z,8.50
2022-10-18T23:29:41.356Z,20.23
2022-10-18T23:34:53.043Z,9.73
2022-10-18T23:39:59.584Z,8.83
2022-10-18T23:45:06.836Z,8.05
2022-10-18T23:50:27.316Z,8.15
2022-10-18T23:55:40.050Z,8.30
